sensor_id;sensor_type;location;lat;lon;timestamp;P1;durP1;ratioP1;P2;durP2;ratioP2
50988;SDS011;37008;52.210;21.112;2022-07-12T00:01:29;4.35;;;2.13;;
50988;SDS011;37008;52.210;21.112;2022-07-12T00:03:55;4.32;;;2.00;;
50988;SDS011;37008;52.210;21.112;2022-07-12T00:06:21;4.22;;;1.90;;
50988;SDS011;37008;52.210;21.112;2022-07-12T00:08:47;4.93;;;2.17;;
50988;SDS011;37008;52.210;21.112;2022-07-12T00:11:12;2.55;;;1.55;;
50988;SDS011;37008;52.210;21.112;2022-07-12T00:13:38;5.55;;;2.00;;
50988;SDS011;37008;52.210;21.112;2022-07-12T00:16:04;4.80;;;1.50;;
50988;SDS011;37008;52.210;21.112;2022-07-12T00:18:30;2.88;;;1.63;;
50988;SDS011;37008;52.210;21.112;2022-07-12T00:20:55;7.75;;;2.08;;
50988;SDS011;37008;52.210;21.112;2022-07-12T00:23:21;4.40;;;1.92;;
50988;SDS011;37008;52.210;21.112;2022-07-12T00:25:46;3.67;;;1.73;;
50988;SDS011;37008;52.210;21.112;2022-07-12T00:28:12;4.60;;;1.70;;
50988;SDS011;37008;52.210;21.112;2022-07-12T00:30:38;2.75;;;1.60;;
50988;SDS011;37008;52.210;21.112;2022-07-12T00:33:03;2.83;;;2.13;;
50988;SDS011;37008;52.210;21.112;2022-07-12T00:35:29;4.70;;;1.60;;
50988;SDS011;37008;52.210;21.112;2022-07-12T00:37:54;5.93;;;2.00;;
50988;SDS011;37008;52.210;21.112;2022-07-12T00:40:20;3.42;;;1.77;;
50988;SDS011;37008;52.210;21.112;2022-07-12T00:42:46;4.15;;;2.10;;
50988;SDS011;37008;52.210;21.112;2022-07-12T00:45:12;2.90;;;1.92;;
50988;SDS011;37008;52.210;21.112;2022-07-12T00:47:38;3.15;;;1.75;;
50988;SDS011;37008;52.210;21.112;2022-07-12T00:50:16;4.07;;;2.28;;
50988;SDS011;37008;52.210;21.112;2022-07-12T00:52:43;2.33;;;1.77;;
50988;SDS011;37008;52.210;21.112;2022-07-12T00:55:10;4.70;;;2.10;;
50988;SDS011;37008;52.210;21.112;2022-07-12T00:57:37;6.03;;;2.15;;
50988;SDS011;37008;52.210;21.112;2022-07-12T01:00:05;4.22;;;2.00;;
50988;SDS011;37008;52.210;21.112;2022-07-12T01:02:33;4.45;;;2.35;;
50988;SDS011;37008;52.210;21.112;2022-07-12T01:05:00;3.90;;;2.20;;
50988;SDS011;37008;52.210;21.112;2022-07-12T01:07:27;2.58;;;2.00;;
50988;SDS011;37008;52.210;21.112;2022-07-12T01:09:53;5.40;;;2.30;;
50988;SDS011;37008;52.210;21.112;2022-07-12T01:12:20;3.63;;;2.60;;
50988;SDS011;37008;52.210;21.112;2022-07-12T01:14:50;6.35;;;2.65;;
50988;SDS011;37008;52.210;21.112;2022-07-12T01:17:20;4.00;;;2.70;;
50988;SDS011;37008;52.210;21.112;2022-07-12T01:19:47;3.80;;;2.63;;
50988;SDS011;37008;52.210;21.112;2022-07-12T01:22:14;3.50;;;2.40;;
50988;SDS011;37008;52.210;21.112;2022-07-12T01:24:41;3.55;;;2.08;;
50988;SDS011;37008;52.210;21.112;2022-07-12T01:27:07;4.90;;;3.17;;
50988;SDS011;37008;52.210;21.112;2022-07-12T01:29:33;5.18;;;2.83;;
50988;SDS011;37008;52.210;21.112;2022-07-12T01:32:00;4.00;;;2.38;;
50988;SDS011;37008;52.210;21.112;2022-07-12T01:34:54;4.85;;;2.80;;
50988;SDS011;37008;52.210;21.112;2022-07-12T01:37:25;7.45;;;2.85;;
50988;SDS011;37008;52.210;21.112;2022-07-12T01:39:54;10.70;;;2.92;;
50988;SDS011;37008;52.210;21.112;2022-07-12T01:42:21;6.57;;;3.00;;
50988;SDS011;37008;52.210;21.112;2022-07-12T01:44:48;5.88;;;3.50;;
50988;SDS011;37008;52.210;21.112;2022-07-12T01:47:15;6.30;;;3.00;;
50988;SDS011;37008;52.210;21.112;2022-07-12T01:49:42;5.50;;;2.60;;
50988;SDS011;37008;52.210;21.112;2022-07-12T01:52:07;4.47;;;3.13;;
50988;SDS011;37008;52.210;21.112;2022-07-12T01:54:34;3.90;;;2.97;;
50988;SDS011;37008;52.210;21.112;2022-07-12T01:57:01;5.82;;;3.08;;
50988;SDS011;37008;52.210;21.112;2022-07-12T01:59:27;5.07;;;3.10;;
50988;SDS011;37008;52.210;21.112;2022-07-12T02:01:54;3.97;;;3.20;;
50988;SDS011;37008;52.210;21.112;2022-07-12T02:04:20;6.78;;;3.05;;
50988;SDS011;37008;52.210;21.112;2022-07-12T02:06:46;6.35;;;3.30;;
50988;SDS011;37008;52.210;21.112;2022-07-12T02:09:12;5.28;;;3.97;;
50988;SDS011;37008;52.210;21.112;2022-07-12T02:11:39;5.47;;;3.33;;
50988;SDS011;37008;52.210;21.112;2022-07-12T02:14:05;7.97;;;4.20;;
50988;SDS011;37008;52.210;21.112;2022-07-12T02:16:32;5.18;;;3.40;;
50988;SDS011;37008;52.210;21.112;2022-07-12T02:18:57;5.55;;;3.80;;
50988;SDS011;37008;52.210;21.112;2022-07-12T02:21:23;6.47;;;4.03;;
50988;SDS011;37008;52.210;21.112;2022-07-12T02:23:49;9.82;;;4.45;;
50988;SDS011;37008;52.210;21.112;2022-07-12T02:26:15;7.88;;;4.60;;
50988;SDS011;37008;52.210;21.112;2022-07-12T02:28:40;4.47;;;3.75;;
50988;SDS011;37008;52.210;21.112;2022-07-12T02:31:06;7.00;;;4.25;;
50988;SDS011;37008;52.210;21.112;2022-07-12T02:33:32;7.05;;;4.07;;
50988;SDS011;37008;52.210;21.112;2022-07-12T02:35:58;5.65;;;3.60;;
50988;SDS011;37008;52.210;21.112;2022-07-12T02:38:23;9.93;;;3.88;;
50988;SDS011;37008;52.210;21.112;2022-07-12T02:40:49;6.07;;;3.85;;
50988;SDS011;37008;52.210;21.112;2022-07-12T02:43:21;9.02;;;4.30;;
50988;SDS011;37008;52.210;21.112;2022-07-12T02:45:48;7.63;;;4.47;;
50988;SDS011;37008;52.210;21.112;2022-07-12T02:48:14;8.18;;;4.65;;
50988;SDS011;37008;52.210;21.112;2022-07-12T02:50:40;9.65;;;4.82;;
50988;SDS011;37008;52.210;21.112;2022-07-12T02:53:06;8.40;;;4.80;;
50988;SDS011;37008;52.210;21.112;2022-07-12T02:55:33;7.72;;;4.57;;
50988;SDS011;37008;52.210;21.112;2022-07-12T02:57:58;8.27;;;4.75;;
50988;SDS011;37008;52.210;21.112;2022-07-12T03:00:25;7.93;;;4.38;;
50988;SDS011;37008;52.210;21.112;2022-07-12T03:02:51;7.63;;;4.03;;
50988;SDS011;37008;52.210;21.112;2022-07-12T03:05:16;6.45;;;3.92;;
50988;SDS011;37008;52.210;21.112;2022-07-12T03:07:42;7.40;;;4.07;;
50988;SDS011;37008;52.210;21.112;2022-07-12T03:10:08;7.55;;;4.53;;
50988;SDS011;37008;52.210;21.112;2022-07-12T03:12:34;8.15;;;4.57;;
50988;SDS011;37008;52.210;21.112;2022-07-12T03:15:00;9.15;;;5.20;;
50988;SDS011;37008;52.210;21.112;2022-07-12T03:17:26;9.40;;;4.82;;
50988;SDS011;37008;52.210;21.112;2022-07-12T03:19:52;8.35;;;5.03;;
50988;SDS011;37008;52.210;21.112;2022-07-12T03:22:17;11.65;;;6.85;;
50988;SDS011;37008;52.210;21.112;2022-07-12T03:24:43;8.25;;;5.03;;
50988;SDS011;37008;52.210;21.112;2022-07-12T03:27:08;10.93;;;5.10;;
50988;SDS011;37008;52.210;21.112;2022-07-12T03:29:34;9.07;;;5.40;;
50988;SDS011;37008;52.210;21.112;2022-07-12T03:32:00;7.88;;;5.45;;
50988;SDS011;37008;52.210;21.112;2022-07-12T03:34:26;10.32;;;5.15;;
50988;SDS011;37008;52.210;21.112;2022-07-12T03:36:52;10.00;;;4.68;;
50988;SDS011;37008;52.210;21.112;2022-07-12T03:39:17;6.65;;;4.20;;
50988;SDS011;37008;52.210;21.112;2022-07-12T03:41:43;6.53;;;4.25;;
50988;SDS011;37008;52.210;21.112;2022-07-12T03:44:08;4.78;;;4.10;;
50988;SDS011;37008;52.210;21.112;2022-07-12T03:46:34;11.57;;;4.78;;
50988;SDS011;37008;52.210;21.112;2022-07-12T03:48:59;9.48;;;5.93;;
50988;SDS011;37008;52.210;21.112;2022-07-12T03:51:25;8.48;;;4.10;;
50988;SDS011;37008;52.210;21.112;2022-07-12T03:53:51;11.73;;;4.40;;
50988;SDS011;37008;52.210;21.112;2022-07-12T03:56:17;6.70;;;4.28;;
50988;SDS011;37008;52.210;21.112;2022-07-12T03:59:02;5.97;;;3.55;;
50988;SDS011;37008;52.210;21.112;2022-07-12T04:01:28;8.05;;;3.83;;
50988;SDS011;37008;52.210;21.112;2022-07-12T04:03:55;8.35;;;3.80;;
50988;SDS011;37008;52.210;21.112;2022-07-12T04:06:20;10.70;;;4.03;;
50988;SDS011;37008;52.210;21.112;2022-07-12T04:08:46;7.05;;;4.20;;
50988;SDS011;37008;52.210;21.112;2022-07-12T04:11:12;6.22;;;3.50;;
50988;SDS011;37008;52.210;21.112;2022-07-12T04:13:37;8.82;;;4.57;;
50988;SDS011;37008;52.210;21.112;2022-07-12T04:16:03;8.68;;;3.88;;
50988;SDS011;37008;52.210;21.112;2022-07-12T04:18:30;5.82;;;3.17;;
50988;SDS011;37008;52.210;21.112;2022-07-12T04:20:56;5.18;;;3.75;;
50988;SDS011;37008;52.210;21.112;2022-07-12T04:23:22;7.38;;;3.47;;
50988;SDS011;37008;52.210;21.112;2022-07-12T04:25:47;7.68;;;3.78;;
50988;SDS011;37008;52.210;21.112;2022-07-12T04:28:13;7.57;;;3.85;;
50988;SDS011;37008;52.210;21.112;2022-07-12T04:30:38;7.90;;;3.55;;
50988;SDS011;37008;52.210;21.112;2022-07-12T04:33:04;5.95;;;3.63;;
50988;SDS011;37008;52.210;21.112;2022-07-12T04:35:30;4.53;;;3.22;;
50988;SDS011;37008;52.210;21.112;2022-07-12T04:37:56;7.82;;;3.60;;
50988;SDS011;37008;52.210;21.112;2022-07-12T04:40:21;10.32;;;4.22;;
50988;SDS011;37008;52.210;21.112;2022-07-12T04:42:47;6.22;;;3.97;;
50988;SDS011;37008;52.210;21.112;2022-07-12T04:45:13;4.80;;;3.80;;
50988;SDS011;37008;52.210;21.112;2022-07-12T04:47:38;8.07;;;4.05;;
50988;SDS011;37008;52.210;21.112;2022-07-12T04:50:07;7.00;;;4.28;;
50988;SDS011;37008;52.210;21.112;2022-07-12T04:52:33;12.27;;;4.63;;
50988;SDS011;37008;52.210;21.112;2022-07-12T04:54:59;5.10;;;4.25;;
50988;SDS011;37008;52.210;21.112;2022-07-12T04:57:25;6.95;;;4.55;;
50988;SDS011;37008;52.210;21.112;2022-07-12T04:59:51;8.95;;;5.35;;
50988;SDS011;37008;52.210;21.112;2022-07-12T05:02:16;8.52;;;4.57;;
50988;SDS011;37008;52.210;21.112;2022-07-12T05:04:42;8.35;;;4.97;;
50988;SDS011;37008;52.210;21.112;2022-07-12T05:07:08;10.32;;;5.38;;
50988;SDS011;37008;52.210;21.112;2022-07-12T05:09:33;9.07;;;5.18;;
50988;SDS011;37008;52.210;21.112;2022-07-12T05:11:59;10.60;;;5.68;;
50988;SDS011;37008;52.210;21.112;2022-07-12T05:14:25;6.50;;;4.45;;
50988;SDS011;37008;52.210;21.112;2022-07-12T05:16:50;15.38;;;5.38;;
50988;SDS011;37008;52.210;21.112;2022-07-12T05:19:16;12.10;;;6.00;;
50988;SDS011;37008;52.210;21.112;2022-07-12T05:21:42;10.75;;;4.70;;
50988;SDS011;37008;52.210;21.112;2022-07-12T05:24:07;8.80;;;4.25;;
50988;SDS011;37008;52.210;21.112;2022-07-12T05:26:33;10.90;;;4.60;;
50988;SDS011;37008;52.210;21.112;2022-07-12T05:28:59;9.32;;;4.43;;
50988;SDS011;37008;52.210;21.112;2022-07-12T05:31:25;5.85;;;4.10;;
50988;SDS011;37008;52.210;21.112;2022-07-12T05:33:51;12.80;;;4.25;;
50988;SDS011;37008;52.210;21.112;2022-07-12T05:36:17;7.15;;;4.03;;
50988;SDS011;37008;52.210;21.112;2022-07-12T05:38:43;9.85;;;4.57;;
50988;SDS011;37008;52.210;21.112;2022-07-12T05:41:09;10.57;;;3.97;;
50988;SDS011;37008;52.210;21.112;2022-07-12T05:43:34;8.88;;;3.45;;
50988;SDS011;37008;52.210;21.112;2022-07-12T05:46:00;8.65;;;3.88;;
50988;SDS011;37008;52.210;21.112;2022-07-12T05:48:26;4.47;;;3.05;;
50988;SDS011;37008;52.210;21.112;2022-07-12T05:50:52;9.45;;;3.50;;
50988;SDS011;37008;52.210;21.112;2022-07-12T05:53:17;4.50;;;3.15;;
50988;SDS011;37008;52.210;21.112;2022-07-12T05:55:49;6.20;;;3.70;;
50988;SDS011;37008;52.210;21.112;2022-07-12T05:58:16;8.57;;;4.03;;
50988;SDS011;37008;52.210;21.112;2022-07-12T06:00:42;9.52;;;5.38;;
50988;SDS011;37008;52.210;21.112;2022-07-12T06:03:08;7.38;;;3.85;;
50988;SDS011;37008;52.210;21.112;2022-07-12T06:05:34;8.02;;;3.45;;
50988;SDS011;37008;52.210;21.112;2022-07-12T06:08:00;6.65;;;2.47;;
50988;SDS011;37008;52.210;21.112;2022-07-12T06:10:25;5.07;;;2.33;;
50988;SDS011;37008;52.210;21.112;2022-07-12T06:12:51;6.25;;;2.30;;
50988;SDS011;37008;52.210;21.112;2022-07-12T06:15:17;7.63;;;2.33;;
50988;SDS011;37008;52.210;21.112;2022-07-12T06:17:42;3.83;;;2.30;;
50988;SDS011;37008;52.210;21.112;2022-07-12T06:20:08;5.50;;;2.38;;
50988;SDS011;37008;52.210;21.112;2022-07-12T06:22:34;5.40;;;2.10;;
50988;SDS011;37008;52.210;21.112;2022-07-12T06:25:00;4.97;;;2.00;;
50988;SDS011;37008;52.210;21.112;2022-07-12T06:27:26;5.75;;;2.38;;
50988;SDS011;37008;52.210;21.112;2022-07-12T06:29:52;5.03;;;2.45;;
50988;SDS011;37008;52.210;21.112;2022-07-12T06:32:17;6.38;;;2.47;;
50988;SDS011;37008;52.210;21.112;2022-07-12T06:34:43;6.07;;;2.45;;
50988;SDS011;37008;52.210;21.112;2022-07-12T06:37:09;13.73;;;2.30;;
50988;SDS011;37008;52.210;21.112;2022-07-12T06:39:35;5.40;;;2.47;;
50988;SDS011;37008;52.210;21.112;2022-07-12T06:42:01;7.03;;;2.63;;
50988;SDS011;37008;52.210;21.112;2022-07-12T06:44:29;7.30;;;2.25;;
50988;SDS011;37008;52.210;21.112;2022-07-12T06:46:56;10.32;;;2.20;;
50988;SDS011;37008;52.210;21.112;2022-07-12T06:49:22;7.75;;;2.40;;
50988;SDS011;37008;52.210;21.112;2022-07-12T06:51:47;5.20;;;2.13;;
50988;SDS011;37008;52.210;21.112;2022-07-12T06:54:13;5.47;;;2.17;;
50988;SDS011;37008;52.210;21.112;2022-07-12T06:56:38;4.07;;;2.08;;
50988;SDS011;37008;52.210;21.112;2022-07-12T06:59:04;4.55;;;1.80;;
50988;SDS011;37008;52.210;21.112;2022-07-12T07:01:29;6.30;;;2.45;;
50988;SDS011;37008;52.210;21.112;2022-07-12T07:03:55;5.32;;;2.38;;
50988;SDS011;37008;52.210;21.112;2022-07-12T07:06:21;4.88;;;1.92;;
50988;SDS011;37008;52.210;21.112;2022-07-12T07:08:46;4.97;;;1.85;;
50988;SDS011;37008;52.210;21.112;2022-07-12T07:11:12;3.20;;;1.95;;
50988;SDS011;37008;52.210;21.112;2022-07-12T07:13:38;6.10;;;1.60;;
50988;SDS011;37008;52.210;21.112;2022-07-12T07:16:04;4.53;;;2.00;;
50988;SDS011;37008;52.210;21.112;2022-07-12T07:18:30;3.83;;;1.40;;
50988;SDS011;37008;52.210;21.112;2022-07-12T07:20:56;6.30;;;1.40;;
50988;SDS011;37008;52.210;21.112;2022-07-12T07:23:22;4.93;;;1.27;;
50988;SDS011;37008;52.210;21.112;2022-07-12T07:25:47;3.80;;;1.58;;
50988;SDS011;37008;52.210;21.112;2022-07-12T07:28:13;3.85;;;1.38;;
50988;SDS011;37008;52.210;21.112;2022-07-12T07:30:38;3.65;;;1.05;;
50988;SDS011;37008;52.210;21.112;2022-07-12T07:33:23;6.80;;;1.50;;
50988;SDS011;37008;52.210;21.112;2022-07-12T07:35:49;7.00;;;1.60;;
50988;SDS011;37008;52.210;21.112;2022-07-12T07:38:16;3.50;;;1.20;;
50988;SDS011;37008;52.210;21.112;2022-07-12T07:40:43;4.53;;;1.40;;
50988;SDS011;37008;52.210;21.112;2022-07-12T07:43:09;5.93;;;1.63;;
50988;SDS011;37008;52.210;21.112;2022-07-12T07:45:35;3.45;;;1.33;;
50988;SDS011;37008;52.210;21.112;2022-07-12T07:48:00;9.63;;;2.10;;
50988;SDS011;37008;52.210;21.112;2022-07-12T07:50:26;5.97;;;1.70;;
50988;SDS011;37008;52.210;21.112;2022-07-12T07:52:52;4.55;;;1.02;;
50988;SDS011;37008;52.210;21.112;2022-07-12T07:55:18;2.90;;;1.20;;
50988;SDS011;37008;52.210;21.112;2022-07-12T07:57:43;2.78;;;1.15;;
50988;SDS011;37008;52.210;21.112;2022-07-12T08:00:11;1.80;;;0.90;;
50988;SDS011;37008;52.210;21.112;2022-07-12T08:02:37;3.47;;;0.90;;
50988;SDS011;37008;52.210;21.112;2022-07-12T08:05:03;4.05;;;1.02;;
50988;SDS011;37008;52.210;21.112;2022-07-12T08:07:29;3.83;;;1.10;;
50988;SDS011;37008;52.210;21.112;2022-07-12T08:09:54;2.90;;;1.02;;
50988;SDS011;37008;52.210;21.112;2022-07-12T08:12:20;4.78;;;1.20;;
50988;SDS011;37008;52.210;21.112;2022-07-12T08:14:46;4.55;;;1.38;;
50988;SDS011;37008;52.210;21.112;2022-07-12T08:17:11;2.80;;;1.10;;
50988;SDS011;37008;52.210;21.112;2022-07-12T08:19:37;2.80;;;1.00;;
50988;SDS011;37008;52.210;21.112;2022-07-12T08:22:02;4.72;;;1.30;;
50988;SDS011;37008;52.210;21.112;2022-07-12T08:24:29;1.65;;;0.98;;
50988;SDS011;37008;52.210;21.112;2022-07-12T08:26:54;3.95;;;1.27;;
50988;SDS011;37008;52.210;21.112;2022-07-12T08:29:20;5.85;;;1.17;;
50988;SDS011;37008;52.210;21.112;2022-07-12T08:31:45;3.40;;;1.30;;
50988;SDS011;37008;52.210;21.112;2022-07-12T08:34:12;3.28;;;1.30;;
50988;SDS011;37008;52.210;21.112;2022-07-12T08:36:37;3.20;;;1.40;;
50988;SDS011;37008;52.210;21.112;2022-07-12T08:39:03;2.53;;;1.60;;
50988;SDS011;37008;52.210;21.112;2022-07-12T08:41:29;4.28;;;1.50;;
50988;SDS011;37008;52.210;21.112;2022-07-12T08:43:54;5.95;;;1.67;;
50988;SDS011;37008;52.210;21.112;2022-07-12T08:46:20;2.88;;;1.60;;
50988;SDS011;37008;52.210;21.112;2022-07-12T08:48:46;3.75;;;1.58;;
50988;SDS011;37008;52.210;21.112;2022-07-12T08:51:12;5.15;;;1.40;;
50988;SDS011;37008;52.210;21.112;2022-07-12T08:53:42;3.40;;;1.42;;
50988;SDS011;37008;52.210;21.112;2022-07-12T08:56:29;2.25;;;1.10;;
50988;SDS011;37008;52.210;21.112;2022-07-12T08:59:17;1.77;;;1.08;;
50988;SDS011;37008;52.210;21.112;2022-07-12T09:01:48;5.68;;;1.38;;
50988;SDS011;37008;52.210;21.112;2022-07-12T09:04:18;3.72;;;1.33;;
50988;SDS011;37008;52.210;21.112;2022-07-12T09:06:45;4.00;;;1.40;;
50988;SDS011;37008;52.210;21.112;2022-07-12T09:09:11;3.60;;;1.30;;
50988;SDS011;37008;52.210;21.112;2022-07-12T09:11:57;3.20;;;1.40;;
50988;SDS011;37008;52.210;21.112;2022-07-12T09:14:23;3.28;;;1.50;;
50988;SDS011;37008;52.210;21.112;2022-07-12T09:17:05;2.92;;;1.20;;
50988;SDS011;37008;52.210;21.112;2022-07-12T09:19:37;3.78;;;1.23;;
50988;SDS011;37008;52.210;21.112;2022-07-12T09:22:03;8.95;;;1.20;;
50988;SDS011;37008;52.210;21.112;2022-07-12T09:24:38;4.93;;;1.10;;
50988;SDS011;37008;52.210;21.112;2022-07-12T09:27:03;4.10;;;0.90;;
50988;SDS011;37008;52.210;21.112;2022-07-12T09:29:30;1.35;;;0.70;;
50988;SDS011;37008;52.210;21.112;2022-07-12T09:31:56;6.25;;;1.15;;
50988;SDS011;37008;52.210;21.112;2022-07-12T09:34:40;4.90;;;1.00;;
50988;SDS011;37008;52.210;21.112;2022-07-12T09:37:24;1.65;;;1.00;;
50988;SDS011;37008;52.210;21.112;2022-07-12T09:39:51;4.72;;;1.38;;
50988;SDS011;37008;52.210;21.112;2022-07-12T09:42:19;1.92;;;0.73;;
50988;SDS011;37008;52.210;21.112;2022-07-12T09:44:45;2.30;;;1.00;;
50988;SDS011;37008;52.210;21.112;2022-07-12T09:47:12;5.38;;;1.10;;
50988;SDS011;37008;52.210;21.112;2022-07-12T09:49:41;2.00;;;0.88;;
50988;SDS011;37008;52.210;21.112;2022-07-12T09:52:21;3.75;;;1.00;;
50988;SDS011;37008;52.210;21.112;2022-07-12T09:54:50;3.83;;;1.40;;
50988;SDS011;37008;52.210;21.112;2022-07-12T09:57:27;3.47;;;1.25;;
50988;SDS011;37008;52.210;21.112;2022-07-12T09:59:55;2.38;;;0.88;;
50988;SDS011;37008;52.210;21.112;2022-07-12T10:02:22;5.20;;;0.90;;
50988;SDS011;37008;52.210;21.112;2022-07-12T10:04:48;3.65;;;1.23;;
50988;SDS011;37008;52.210;21.112;2022-07-12T10:07:15;6.43;;;1.20;;
50988;SDS011;37008;52.210;21.112;2022-07-12T10:09:41;6.20;;;1.10;;
50988;SDS011;37008;52.210;21.112;2022-07-12T10:12:16;1.48;;;0.80;;
50988;SDS011;37008;52.210;21.112;2022-07-12T10:14:43;1.77;;;0.90;;
50988;SDS011;37008;52.210;21.112;2022-07-12T10:17:10;1.30;;;0.85;;
50988;SDS011;37008;52.210;21.112;2022-07-12T10:19:37;6.85;;;1.30;;
50988;SDS011;37008;52.210;21.112;2022-07-12T10:22:04;5.07;;;1.27;;
50988;SDS011;37008;52.210;21.112;2022-07-12T10:24:44;1.73;;;0.90;;
50988;SDS011;37008;52.210;21.112;2022-07-12T10:29:48;9.43;;;0.90;;
50988;SDS011;37008;52.210;21.112;2022-07-12T10:32:33;3.50;;;0.90;;
50988;SDS011;37008;52.210;21.112;2022-07-12T10:35:09;5.35;;;1.23;;
50988;SDS011;37008;52.210;21.112;2022-07-12T10:37:38;2.53;;;0.95;;
50988;SDS011;37008;52.210;21.112;2022-07-12T10:45:29;4.80;;;1.40;;
50988;SDS011;37008;52.210;21.112;2022-07-12T10:53:20;3.75;;;0.98;;
50988;SDS011;37008;52.210;21.112;2022-07-12T10:56:37;7.45;;;1.02;;
50988;SDS011;37008;52.210;21.112;2022-07-12T10:58:47;4.00;;;1.00;;
50988;SDS011;37008;52.210;21.112;2022-07-12T11:01:18;2.72;;;0.80;;
50988;SDS011;37008;52.210;21.112;2022-07-12T11:03:45;2.47;;;0.90;;
50988;SDS011;37008;52.210;21.112;2022-07-12T11:06:20;4.85;;;0.98;;
50988;SDS011;37008;52.210;21.112;2022-07-12T11:11:24;2.22;;;0.80;;
50988;SDS011;37008;52.210;21.112;2022-07-12T11:13:53;4.22;;;0.88;;
50988;SDS011;37008;52.210;21.112;2022-07-12T11:16:20;2.30;;;0.90;;
50988;SDS011;37008;52.210;21.112;2022-07-12T11:18:46;1.85;;;0.93;;
50988;SDS011;37008;52.210;21.112;2022-07-12T11:21:12;2.17;;;0.90;;
50988;SDS011;37008;52.210;21.112;2022-07-12T11:23:38;4.43;;;0.80;;
50988;SDS011;37008;52.210;21.112;2022-07-12T11:26:08;1.55;;;0.90;;
50988;SDS011;37008;52.210;21.112;2022-07-12T11:28:36;2.00;;;0.90;;
50988;SDS011;37008;52.210;21.112;2022-07-12T11:31:03;1.00;;;0.73;;
50988;SDS011;37008;52.210;21.112;2022-07-12T11:33:38;2.05;;;0.85;;
50988;SDS011;37008;52.210;21.112;2022-07-12T11:36:07;2.55;;;1.20;;
50988;SDS011;37008;52.210;21.112;2022-07-12T11:38:34;4.93;;;0.90;;
50988;SDS011;37008;52.210;21.112;2022-07-12T11:41:04;3.35;;;0.98;;
50988;SDS011;37008;52.210;21.112;2022-07-12T11:43:31;6.05;;;1.00;;
50988;SDS011;37008;52.210;21.112;2022-07-12T11:45:58;2.53;;;0.90;;
50988;SDS011;37008;52.210;21.112;2022-07-12T11:48:25;4.18;;;0.98;;
50988;SDS011;37008;52.210;21.112;2022-07-12T11:50:55;2.42;;;0.88;;
50988;SDS011;37008;52.210;21.112;2022-07-12T11:53:22;1.67;;;0.90;;
50988;SDS011;37008;52.210;21.112;2022-07-12T11:55:49;4.22;;;0.80;;
50988;SDS011;37008;52.210;21.112;2022-07-12T11:58:17;4.80;;;1.10;;
50988;SDS011;37008;52.210;21.112;2022-07-12T12:00:44;4.78;;;0.77;;
50988;SDS011;37008;52.210;21.112;2022-07-12T12:03:11;2.45;;;0.80;;
50988;SDS011;37008;52.210;21.112;2022-07-12T12:05:37;2.55;;;0.70;;
50988;SDS011;37008;52.210;21.112;2022-07-12T12:08:04;4.07;;;0.93;;
50988;SDS011;37008;52.210;21.112;2022-07-12T12:10:31;1.80;;;0.73;;
50988;SDS011;37008;52.210;21.112;2022-07-12T12:12:58;7.10;;;0.82;;
50988;SDS011;37008;52.210;21.112;2022-07-12T12:15:26;3.03;;;0.95;;
50988;SDS011;37008;52.210;21.112;2022-07-12T12:17:56;5.57;;;1.00;;
50988;SDS011;37008;52.210;21.112;2022-07-12T12:20:26;3.78;;;0.98;;
50988;SDS011;37008;52.210;21.112;2022-07-12T12:22:54;2.90;;;1.20;;
50988;SDS011;37008;52.210;21.112;2022-07-12T12:25:21;2.05;;;1.08;;
50988;SDS011;37008;52.210;21.112;2022-07-12T12:27:48;2.00;;;0.80;;
50988;SDS011;37008;52.210;21.112;2022-07-12T12:30:19;4.38;;;0.98;;
50988;SDS011;37008;52.210;21.112;2022-07-12T12:35:16;4.93;;;0.90;;
50988;SDS011;37008;52.210;21.112;2022-07-12T12:37:50;1.73;;;0.85;;
50988;SDS011;37008;52.210;21.112;2022-07-12T12:40:21;5.40;;;0.80;;
50988;SDS011;37008;52.210;21.112;2022-07-12T12:42:48;4.63;;;0.77;;
50988;SDS011;37008;52.210;21.112;2022-07-12T12:45:21;5.30;;;0.70;;
50988;SDS011;37008;52.210;21.112;2022-07-12T12:48:02;2.35;;;0.80;;
50988;SDS011;37008;52.210;21.112;2022-07-12T12:50:37;2.53;;;0.80;;
50988;SDS011;37008;52.210;21.112;2022-07-12T12:53:54;3.35;;;0.98;;
50988;SDS011;37008;52.210;21.112;2022-07-12T12:55:53;2.92;;;0.90;;
50988;SDS011;37008;52.210;21.112;2022-07-12T12:58:21;2.85;;;0.75;;
50988;SDS011;37008;52.210;21.112;2022-07-12T13:00:49;3.30;;;0.77;;
50988;SDS011;37008;52.210;21.112;2022-07-12T13:03:18;2.63;;;0.90;;
50988;SDS011;37008;52.210;21.112;2022-07-12T13:05:45;3.53;;;1.00;;
50988;SDS011;37008;52.210;21.112;2022-07-12T13:08:12;2.67;;;1.05;;
50988;SDS011;37008;52.210;21.112;2022-07-12T13:10:39;2.35;;;1.05;;
50988;SDS011;37008;52.210;21.112;2022-07-12T13:13:07;1.48;;;0.80;;
50988;SDS011;37008;52.210;21.112;2022-07-12T13:15:34;5.13;;;1.40;;
50988;SDS011;37008;52.210;21.112;2022-07-12T13:18:01;5.97;;;0.95;;
50988;SDS011;37008;52.210;21.112;2022-07-12T13:20:28;4.85;;;1.00;;
50988;SDS011;37008;52.210;21.112;2022-07-12T13:22:54;4.63;;;0.90;;
50988;SDS011;37008;52.210;21.112;2022-07-12T13:25:20;5.38;;;0.95;;
50988;SDS011;37008;52.210;21.112;2022-07-12T13:27:46;2.15;;;1.10;;
50988;SDS011;37008;52.210;21.112;2022-07-12T13:30:12;6.68;;;0.82;;
50988;SDS011;37008;52.210;21.112;2022-07-12T13:32:40;4.32;;;1.15;;
50988;SDS011;37008;52.210;21.112;2022-07-12T13:35:07;1.85;;;0.82;;
50988;SDS011;37008;52.210;21.112;2022-07-12T13:37:35;2.20;;;0.70;;
50988;SDS011;37008;52.210;21.112;2022-07-12T13:40:04;2.03;;;0.70;;
50988;SDS011;37008;52.210;21.112;2022-07-12T13:42:43;3.42;;;0.80;;
50988;SDS011;37008;52.210;21.112;2022-07-12T13:45:11;3.50;;;1.08;;
50988;SDS011;37008;52.210;21.112;2022-07-12T13:47:39;2.78;;;0.75;;
50988;SDS011;37008;52.210;21.112;2022-07-12T13:50:05;2.20;;;0.93;;
50988;SDS011;37008;52.210;21.112;2022-07-12T13:52:31;14.75;;;1.20;;
50988;SDS011;37008;52.210;21.112;2022-07-12T13:54:57;2.17;;;0.65;;
50988;SDS011;37008;52.210;21.112;2022-07-12T13:57:23;1.42;;;0.60;;
50988;SDS011;37008;52.210;21.112;2022-07-12T13:59:49;1.42;;;0.57;;
50988;SDS011;37008;52.210;21.112;2022-07-12T14:02:16;5.32;;;1.17;;
50988;SDS011;37008;52.210;21.112;2022-07-12T14:04:41;5.80;;;0.70;;
50988;SDS011;37008;52.210;21.112;2022-07-12T14:07:07;7.25;;;0.80;;
50988;SDS011;37008;52.210;21.112;2022-07-12T14:09:32;3.35;;;0.70;;
50988;SDS011;37008;52.210;21.112;2022-07-12T14:11:58;2.85;;;0.70;;
50988;SDS011;37008;52.210;21.112;2022-07-12T14:14:26;3.22;;;0.80;;
50988;SDS011;37008;52.210;21.112;2022-07-12T14:17:11;2.28;;;1.08;;
50988;SDS011;37008;52.210;21.112;2022-07-12T14:19:36;2.47;;;0.73;;
50988;SDS011;37008;52.210;21.112;2022-07-12T14:22:02;1.42;;;0.77;;
50988;SDS011;37008;52.210;21.112;2022-07-12T14:24:28;2.45;;;1.05;;
50988;SDS011;37008;52.210;21.112;2022-07-12T14:26:54;2.55;;;0.80;;
50988;SDS011;37008;52.210;21.112;2022-07-12T14:29:19;3.42;;;0.70;;
50988;SDS011;37008;52.210;21.112;2022-07-12T14:31:45;2.80;;;0.82;;
50988;SDS011;37008;52.210;21.112;2022-07-12T14:34:11;1.70;;;0.75;;
50988;SDS011;37008;52.210;21.112;2022-07-12T14:36:37;2.60;;;1.00;;
50988;SDS011;37008;52.210;21.112;2022-07-12T14:39:03;1.88;;;0.90;;
50988;SDS011;37008;52.210;21.112;2022-07-12T14:41:29;3.70;;;0.90;;
50988;SDS011;37008;52.210;21.112;2022-07-12T14:43:55;6.20;;;0.82;;
50988;SDS011;37008;52.210;21.112;2022-07-12T14:46:21;2.13;;;0.90;;
50988;SDS011;37008;52.210;21.112;2022-07-12T14:48:47;3.83;;;0.90;;
50988;SDS011;37008;52.210;21.112;2022-07-12T14:51:12;5.47;;;0.80;;
50988;SDS011;37008;52.210;21.112;2022-07-12T14:53:38;3.80;;;0.93;;